createdAt,value
2022-12-16T00:04:04.426Z,134.69
2022-12-16T00:19:04.692Z,135.53
2022-12-16T00:34:04.892Z,118.49
2022-12-16T00:49:04.708Z,133.90
2022-12-16T01:04:07.838Z,135.00
2022-12-16T01:19:04.687Z,135.00
2022-12-16T01:34:05.187Z,135.00
2022-12-16T01:49:04.772Z,135.00
2022-12-16T02:04:06.020Z,135.00
2022-12-16T02:19:05.055Z,135.00
2022-12-16T02:34:04.758Z,135.00
2022-12-16T02:49:05.199Z,120.62
2022-12-16T03:04:04.904Z,138.94
2022-12-16T03:19:05.043Z,225.00
2022-12-16T03:34:04.898Z,179.85
2022-12-16T03:49:05.075Z,128.92
2022-12-16T04:04:05.042Z,75.90
2022-12-16T04:19:05.297Z,199.96
2022-12-16T04:34:06.310Z,225.00
2022-12-16T04:49:05.219Z,290.58
2022-12-16T05:04:05.309Z,217.55
2022-12-16T05:19:05.101Z,112.11
2022-12-16T05:34:05.215Z,18.73
2022-12-16T05:49:05.195Z,172.71
2022-12-16T06:04:05.291Z,57.55
2022-12-16T06:19:05.334Z,104.12
2022-12-16T06:34:05.451Z,135.00
2022-12-16T06:49:05.253Z,133.11
2022-12-16T07:04:05.597Z,98.53
2022-12-16T07:19:05.621Z,112.95
2022-12-16T07:34:05.086Z,75.16
2022-12-16T07:49:05.211Z,47.38
2022-12-16T08:04:05.459Z,100.18
2022-12-16T08:19:10.852Z,113.66
2022-12-16T08:34:05.335Z,185.97
2022-12-16T08:49:05.363Z,185.91
2022-12-16T09:04:05.438Z,196.87
2022-12-16T09:19:05.471Z,225.00
2022-12-16T09:34:05.538Z,225.00
2022-12-16T09:49:05.488Z,225.00
2022-12-16T10:04:06.717Z,228.53
2022-12-16T10:19:05.594Z,225.00
2022-12-16T10:34:06.478Z,222.73
2022-12-16T10:49:05.968Z,225.00
2022-12-16T11:04:05.676Z,225.00
2022-12-16T11:19:06.065Z,225.00
2022-12-16T11:34:05.960Z,206.65
2022-12-16T11:49:05.630Z,203.29
2022-12-16T12:04:05.777Z,194.14
2022-12-16T12:19:05.749Z,225.00
2022-12-16T12:34:05.925Z,225.00
2022-12-16T12:49:05.925Z,225.00
2022-12-16T13:04:06.881Z,224.83
2022-12-16T13:19:09.487Z,194.94
2022-12-16T13:34:05.800Z,220.82
2022-12-16T13:49:05.948Z,238.06
2022-12-16T14:04:06.179Z,230.44
2022-12-16T14:19:06.002Z,225.00
2022-12-16T14:34:06.124Z,225.00
2022-12-16T14:49:06.046Z,228.22
2022-12-16T15:04:06.280Z,279.82
2022-12-16T15:19:06.172Z,159.19
2022-12-16T15:34:06.110Z,201.48
2022-12-16T15:49:07.926Z,256.07
2022-12-16T16:04:06.398Z,130.36
2022-12-16T16:19:06.249Z,130.13
2022-12-16T16:34:06.297Z,170.47
2022-12-16T16:49:06.446Z,180.99
2022-12-16T17:04:06.494Z,194.70
2022-12-16T17:19:06.400Z,218.67
2022-12-16T17:34:06.652Z,221.77
2022-12-16T17:49:06.567Z,229.60
2022-12-16T18:04:06.561Z,252.32
2022-12-16T18:19:06.528Z,217.54
2022-12-16T18:34:06.639Z,221.43
2022-12-16T18:49:06.698Z,217.54
2022-12-16T19:04:06.461Z,209.38
2022-12-16T19:19:06.623Z,198.19
2022-12-16T19:34:06.518Z,151.33
2022-12-16T19:49:06.721Z,195.07
2022-12-16T20:04:06.519Z,177.04
2022-12-16T20:19:06.817Z,129.04
2022-12-16T20:34:06.739Z,150.78
2022-12-16T20:49:06.746Z,226.01
2022-12-16T21:04:06.823Z,200.12
2022-12-16T21:19:06.833Z,123.50
2022-12-16T21:34:06.767Z,172.14
2022-12-16T21:49:07.036Z,200.17
2022-12-16T22:04:07.091Z,163.58
2022-12-16T22:19:09.633Z,157.49
2022-12-16T22:34:07.037Z,193.27
2022-12-16T22:49:09.855Z,190.33
2022-12-16T23:04:07.271Z,168.84
2022-12-16T23:19:07.222Z,199.00
2022-12-16T23:34:07.034Z,206.89
2022-12-16T23:49:06.899Z,220.22
